Time;durP1;ratioP1;P1;durP2;ratioP2;P2;SDS_P1;SDS_P2;PMS_P1;PMS_P2;Temp;Humidity;BMP_temperature;BMP_pressure;BME280_temperature;BME280_humidity;BME280_pressure;Samples;Min_cycle;Max_cycle;Signal;HPM_P1;HPM_P2
2023/10/09 00:00:35;;;;;;;11.30;2.97;;;;;;;18.85;50.73;95107.88;4201521;28;20059;-72
2023/10/09 00:02:28;;;;;;;9.57;3.17;;;;;;;18.71;51.04;95109.63;4208956;28;20082;-72
2023/10/09 00:04:36;;;;;;;7.88;2.33;;;;;;;18.72;50.82;95109.44;4191343;28;20204;-69
2023/10/09 00:06:39;;;;;;;14.25;2.90;;;;;;;18.67;50.94;95109.22;4208617;28;20051;-70
2023/10/09 00:08:44;;;;;;;11.88;2.45;;;;;;;18.63;50.97;95111.44;4200574;28;20091;-72
2023/10/09 00:10:53;;;;;;;10.23;2.92;;;;;;;18.66;51.12;95107.56;4181009;28;20057;-70
2023/10/09 00:12:58;;;;;;;11.10;2.30;;;;;;;18.64;51.21;95114.91;4204316;28;20048;-72
2023/10/09 00:15:10;;;;;;;7.32;2.75;;;;;;;18.65;51.15;95119.22;4210961;28;20529;-71
2023/10/09 00:19:19;;;;;;;8.20;2.42;;;;;;;18.38;51.48;95108.47;4197928;28;20488;-68
2023/10/09 00:21:22;;;;;;;12.55;2.25;;;;;;;18.39;51.85;95118.09;4204854;28;20157;-70
2023/10/09 00:23:25;;;;;;;9.68;2.80;;;;;;;18.45;51.78;95102.38;4197708;28;20097;-71
2023/10/09 00:25:30;;;;;;;11.30;2.30;;;;;;;18.48;51.54;95107.31;4208872;28;20047;-69
2023/10/09 00:27:36;;;;;;;10.80;2.33;;;;;;;18.36;51.46;95107.84;4208316;28;20127;-70
2023/10/09 00:29:47;;;;;;;8.20;2.58;;;;;;;18.29;51.58;95116.81;4188581;28;20097;-70
2023/10/09 00:31:54;;;;;;;8.32;2.22;;;;;;;18.26;51.95;95118.00;4216062;28;20051;-70
2023/10/09 00:33:56;;;;;;;11.00;2.63;;;;;;;18.08;52.01;95112.41;4204671;28;20052;-71
2023/10/09 00:36:14;;;;;;;10.40;2.70;;;;;;;18.13;51.92;95102.88;4193818;28;20095;-71
2023/10/09 00:40:31;;;;;;;9.35;2.38;;;;;;;18.05;52.27;95103.03;4192183;28;20057;-71
2023/10/09 00:42:36;;;;;;;7.75;2.08;;;;;;;17.93;52.39;95105.38;4210994;28;20117;-71
2023/10/09 00:44:41;;;;;;;8.23;2.20;;;;;;;17.95;52.59;95106.00;4194041;28;20115;-69
2023/10/09 00:46:47;;;;;;;5.10;2.13;;;;;;;17.88;52.64;95094.56;4207883;28;20052;-71
2023/10/09 00:48:52;;;;;;;9.75;2.50;;;;;;;17.90;52.43;95091.72;4209010;28;20479;-72
2023/10/09 00:50:54;;;;;;;5.53;1.80;;;;;;;17.79;52.55;95090.41;4210924;28;20091;-70
2023/10/09 00:53:09;;;;;;;14.95;2.60;;;;;;;17.79;52.78;95108.94;4210822;28;20055;-73
2023/10/09 00:55:19;;;;;;;8.23;2.35;;;;;;;17.57;53.26;95111.66;4210778;28;20051;-69
2023/10/09 00:57:24;;;;;;;15.15;2.60;;;;;;;17.51;53.34;95108.91;4179285;28;20091;-74
2023/10/09 00:59:27;;;;;;;9.57;2.45;;;;;;;17.49;53.56;95118.91;4185839;28;20079;-72
2023/10/09 01:01:34;;;;;;;8.15;2.35;;;;;;;17.48;53.60;95122.56;4192512;28;20049;-72
2023/10/09 01:03:40;;;;;;;8.07;2.35;;;;;;;17.55;53.42;95113.66;4210356;28;20109;-70
2023/10/09 01:06:28;;;;;;;5.88;2.03;;;;;;;17.61;53.19;95130.59;4188036;28;20053;-71
2023/10/09 01:08:16;;;;;;;7.97;2.13;;;;;;;17.58;52.84;95128.34;4197123;28;20586;-71
2023/10/09 01:10:18;;;;;;;6.57;2.05;;;;;;;17.64;52.73;95134.69;4207698;28;20047;-69
2023/10/09 01:12:21;;;;;;;5.40;2.10;;;;;;;17.53;52.54;95136.88;4206651;28;20044;-69
2023/10/09 01:14:23;;;;;;;7.32;1.83;;;;;;;17.47;52.59;95145.59;4204149;28;20056;-71
2023/10/09 01:16:25;;;;;;;6.18;2.00;;;;;;;17.51;52.35;95157.44;4189351;28;20056;-71
2023/10/09 01:18:36;;;;;;;9.35;1.90;;;;;;;17.52;52.05;95152.97;4211010;28;20113;-71
2023/10/09 01:20:45;;;;;;;8.40;2.05;;;;;;;17.41;52.16;95156.94;4201909;28;20056;-69
2023/10/09 01:22:50;;;;;;;5.72;1.75;;;;;;;17.39;52.05;95151.00;4207803;28;20052;-69
2023/10/09 01:24:55;;;;;;;5.38;1.80;;;;;;;17.17;52.14;95156.31;4198820;28;20051;-69
2023/10/09 01:26:59;;;;;;;6.82;1.83;;;;;;;17.15;52.30;95150.38;4210349;28;20155;-69
2023/10/09 01:29:02;;;;;;;4.13;2.10;;;;;;;16.91;52.61;95156.03;4200538;28;20052;-70
2023/10/09 01:31:06;;;;;;;5.78;2.00;;;;;;;17.01;52.65;95167.13;4209153;28;20055;-69
2023/10/09 01:35:47;;;;;;;5.70;2.03;;;;;;;17.11;52.13;95183.53;4200863;28;20056;-69
2023/10/09 01:37:51;;;;;;;8.57;1.88;;;;;;;17.02;52.32;95181.19;4192003;28;20051;-71
2023/10/09 01:39:57;;;;;;;4.03;1.83;;;;;;;16.97;52.46;95181.72;4208141;28;20396;-69
2023/10/09 01:42:01;;;;;;;6.03;1.73;;;;;;;16.91;52.71;95177.22;4188477;28;20396;-69
2023/10/09 01:44:10;;;;;;;6.03;2.00;;;;;;;16.93;52.47;95176.00;4210016;28;20052;-70
2023/10/09 01:46:16;;;;;;;6.05;1.73;;;;;;;16.82;52.77;95170.38;4205477;28;20048;-71
2023/10/09 01:48:23;;;;;;;4.75;1.70;;;;;;;16.78;52.82;95178.66;4208499;28;20070;-67
2023/10/09 01:50:26;;;;;;;5.05;2.00;;;;;;;16.71;52.99;95177.78;4209578;28;20135;-68
2023/10/09 01:52:30;;;;;;;4.28;1.90;;;;;;;16.59;53.09;95197.75;4210971;28;20044;-71
2023/10/09 01:54:38;;;;;;;8.25;1.85;;;;;;;16.55;53.47;95207.06;4210113;28;20071;-71
2023/10/09 01:56:46;;;;;;;7.93;2.00;;;;;;;16.38;53.96;95201.94;4199981;28;20162;-71
2023/10/09 01:58:47;;;;;;;9.45;1.90;;;;;;;16.22;54.68;95209.22;4191274;28;20060;-70
2023/10/09 02:01:02;;;;;;;8.80;2.28;;;;;;;16.28;54.71;95198.78;4209150;28;20463;-69
2023/10/09 02:03:05;;;;;;;;;;;;;;;16.23;54.95;95203.78;4193112;28;20105;-70
2023/10/09 02:05:23;;;;;;;10.13;2.53;;;;;;;16.27;54.57;95218.28;4201012;28;19928;-71
2023/10/09 02:07:29;;;;;;;6.72;2.25;;;;;;;16.21;54.73;95223.47;4209813;28;20058;-72
2023/10/09 02:09:34;;;;;;;7.63;2.10;;;;;;;16.25;54.62;95225.56;4206913;28;20157;-70
2023/10/09 02:11:39;;;;;;;10.80;2.15;;;;;;;16.01;54.85;95231.09;4191563;28;20052;-71
2023/10/09 02:13:42;;;;;;;5.20;2.20;;;;;;;15.90;55.00;95217.31;4203765;28;20419;-71
2023/10/09 02:15:51;;;;;;;7.40;2.38;;;;;;;15.87;55.16;95212.38;4216683;28;20463;-69
2023/10/09 02:18:00;;;;;;;5.32;2.10;;;;;;;15.79;55.03;95206.34;4189796;28;20048;-71
2023/10/09 02:20:17;;;;;;;14.32;2.33;;;;;;;15.79;54.87;95214.25;4187754;28;20048;-70
2023/10/09 02:22:19;;;;;;;7.63;2.25;;;;;;;15.73;55.25;95215.81;4173996;28;20051;-69
2023/10/09 02:27:40;;;;;;;5.82;2.10;;;;;;;15.75;55.04;95229.66;4205719;28;20071;-70
2023/10/09 02:31:12;;;;;;;9.45;2.05;;;;;;;15.97;54.27;95241.19;4209940;28;20136;-70
2023/10/09 02:33:27;;;;;;;6.22;1.70;;;;;;;15.95;53.91;95241.38;4210752;28;20140;-69
2023/10/09 02:35:42;;;;;;;5.82;1.80;;;;;;;15.94;53.94;95250.31;4198402;28;20048;-68
2023/10/09 02:37:46;;;;;;;4.70;2.08;;;;;;;15.89;53.95;95260.56;4207615;28;20071;-70
2023/10/09 02:39:52;;;;;;;5.25;1.80;;;;;;;15.91;53.79;95255.13;4192136;28;20873;-70
2023/10/09 02:42:07;;;;;;;3.88;1.63;;;;;;;15.92;53.64;95252.31;4209366;28;20130;-70
2023/10/09 02:44:10;;;;;;;6.65;2.20;;;;;;;15.90;53.83;95254.31;4202936;28;20054;-72
2023/10/09 02:46:36;;;;;;;4.07;2.00;;;;;;;15.87;53.85;95257.28;4209721;28;20137;-68
2023/10/09 02:48:42;;;;;;;6.13;1.73;;;;;;;15.82;53.81;95258.84;4196801;28;20052;-70
2023/10/09 02:50:45;;;;;;;10.40;1.90;;;;;;;15.84;53.92;95247.09;4209801;28;20056;-69
2023/10/09 02:52:52;;;;;;;5.50;1.45;;;;;;;15.85;53.60;95248.75;4208589;28;20139;-68
2023/10/09 02:54:59;;;;;;;12.25;1.83;;;;;;;15.81;53.50;95250.09;4206889;28;20097;-69
2023/10/09 02:57:15;;;;;;;6.50;1.80;;;;;;;15.60;53.57;95255.19;4205681;28;20569;-71
2023/10/09 02:59:21;;;;;;;9.45;1.60;;;;;;;15.67;53.45;95245.53;4208942;28;20460;-69
2023/10/09 03:01:23;;;;;;;7.88;1.48;;;;;;;15.67;53.36;95256.09;4209701;28;20134;-69
2023/10/09 03:03:26;;;;;;;11.85;1.95;;;;;;;15.62;53.18;95255.84;4193934;28;20503;-70
2023/10/09 03:05:30;;;;;;;4.32;1.63;;;;;;;15.61;53.21;95260.28;4209037;28;20070;-69
2023/10/09 03:07:34;;;;;;;3.85;1.55;;;;;;;15.53;53.38;95261.16;4196300;28;20058;-70
2023/10/09 03:09:36;;;;;;;6.33;1.70;;;;;;;15.64;53.09;95265.22;4191453;28;20589;-70
2023/10/09 03:11:38;;;;;;;4.75;1.50;;;;;;;15.65;53.06;95276.59;4190458;28;20052;-70
2023/10/09 03:13:45;;;;;;;5.03;1.80;;;;;;;15.48;53.12;95279.34;4209563;28;20151;-69
2023/10/09 03:15:48;;;;;;;7.43;1.80;;;;;;;15.50;53.31;95281.81;4192984;28;20063;-70
2023/10/09 03:17:50;;;;;;;8.32;1.63;;;;;;;15.51;53.21;95279.00;4171468;28;20493;-70
2023/10/09 03:19:52;;;;;;;2.67;1.42;;;;;;;15.50;53.05;95279.16;4208961;28;20051;-69
2023/10/09 03:21:57;;;;;;;7.00;1.88;;;;;;;15.38;53.22;95283.19;4209358;28;20066;-69
2023/10/09 03:24:04;;;;;;;3.28;1.52;;;;;;;15.29;53.42;95287.69;4200904;28;20530;-69
2023/10/09 03:26:08;;;;;;;4.82;1.38;;;;;;;15.33;53.27;95289.81;4205232;28;20082;-69
2023/10/09 03:28:22;;;;;;;5.72;1.50;;;;;;;15.27;53.66;95292.34;4193207;28;20207;-71
2023/10/09 03:30:24;;;;;;;6.55;1.58;;;;;;;15.22;53.49;95289.41;4209052;28;20086;-71
2023/10/09 03:32:26;;;;;;;7.18;2.10;;;;;;;15.24;53.53;95290.06;4208741;28;20056;-68
2023/10/09 03:34:28;;;;;;;9.30;1.60;;;;;;;15.30;53.24;95298.09;4208608;28;20143;-69
2023/10/09 03:36:37;;;;;;;5.68;1.90;;;;;;;15.32;53.39;95297.94;4192475;28;20053;-73
2023/10/09 03:38:39;;;;;;;5.65;2.50;;;;;;;15.34;53.06;95301.22;4209473;28;20060;-72
2023/10/09 03:40:43;;;;;;;3.95;1.60;;;;;;;15.38;52.74;95299.88;4208425;28;20140;-70
2023/10/09 03:42:52;;;;;;;3.65;1.55;;;;;;;15.45;52.58;95297.38;4209075;28;20119;-71
2023/10/09 03:44:57;;;;;;;4.00;1.15;;;;;;;15.41;52.50;95298.72;4209279;28;20051;-72
2023/10/09 03:47:01;;;;;;;4.22;1.33;;;;;;;15.30;52.33;95306.00;4210318;28;20056;-71
2023/10/09 03:49:10;;;;;;;;;;;;;;;15.20;52.77;95294.84;4204329;28;20047;-71
2023/10/09 03:51:21;;;;;;;7.13;1.17;;;;;;;15.15;52.76;95299.84;4208800;28;19995;-70
2023/10/09 03:53:24;;;;;;;8.18;1.60;;;;;;;14.86;53.36;95308.34;4205898;28;20048;-70
2023/10/09 03:55:27;;;;;;;;;;;;;;;14.60;53.75;95305.97;4193440;28;20060;-71
2023/10/09 03:57:30;;;;;;;4.95;1.33;;;;;;;14.45;54.12;95311.88;4187111;28;19989;-69
2023/10/09 03:59:32;;;;;;;2.33;1.10;;;;;;;14.43;54.26;95319.16;4205631;28;20135;-71
2023/10/09 04:01:37;;;;;;;2.42;0.95;;;;;;;14.31;54.19;95312.59;4195361;28;20636;-73
2023/10/09 04:03:40;;;;;;;4.85;1.50;;;;;;;14.39;54.26;95319.63;4171511;28;20049;-72
2023/10/09 04:05:45;;;;;;;1.92;1.10;;;;;;;14.44;53.96;95319.97;4210360;28;20163;-72
2023/10/09 04:07:49;;;;;;;3.50;1.10;;;;;;;14.54;53.36;95324.09;4211610;28;20086;-70
2023/10/09 04:10:32;;;;;;;3.63;1.40;;;;;;;14.62;53.27;95325.88;4202059;28;20447;-72
2023/10/09 04:12:20;;;;;;;7.57;1.70;;;;;;;14.60;52.81;95319.97;4205849;28;20056;-70
2023/10/09 04:14:32;;;;;;;4.00;1.20;;;;;;;14.60;52.75;95319.16;4202669;28;20048;-71
2023/10/09 04:16:51;;;;;;;5.32;1.20;;;;;;;14.57;52.72;95320.31;4196898;28;20094;-71
2023/10/09 04:18:57;;;;;;;2.97;1.38;;;;;;;14.65;52.61;95314.22;4208589;28;20058;-71
2023/10/09 04:23:34;;;;;;;6.13;1.40;;;;;;;14.39;52.57;95315.22;4206297;28;20488;-71
2023/10/09 04:25:42;;;;;;;5.35;1.38;;;;;;;14.41;52.27;95318.50;4212104;28;20565;-70
2023/10/09 04:27:46;;;;;;;5.40;1.50;;;;;;;14.49;51.85;95318.47;4209385;28;20744;-71
2023/10/09 04:29:49;;;;;;;3.33;1.40;;;;;;;14.53;51.94;95329.50;4200771;28;20179;-72
2023/10/09 04:31:56;;;;;;;3.63;1.42;;;;;;;14.54;51.69;95331.19;4213861;28;20044;-71
2023/10/09 04:36:36;;;;;;;4.30;1.65;;;;;;;14.64;51.01;95328.38;4201648;28;20052;-70
2023/10/09 04:38:38;;;;;;;6.30;1.50;;;;;;;14.76;51.08;95323.56;4177565;28;20069;-73
2023/10/09 04:42:58;;;;;;;2.75;1.13;;;;;;;14.92;49.87;95329.59;4208853;28;20052;-72
2023/10/09 04:49:28;;;;;;;5.38;1.30;;;;;;;14.98;49.24;95325.47;4194845;28;20108;-71
2023/10/09 04:51:36;;;;;;;6.03;1.42;;;;;;;14.94;48.65;95329.44;4211733;28;20463;-71
2023/10/09 04:53:50;;;;;;;4.03;1.45;;;;;;;14.90;48.53;95328.94;4206846;28;20059;-68
2023/10/09 04:55:57;;;;;;;2.97;1.38;;;;;;;14.79;48.41;95326.66;4211862;28;20521;-70
2023/10/09 04:58:08;;;;;;;6.65;1.60;;;;;;;14.70;48.49;95320.59;4208054;28;20209;-72
2023/10/09 05:02:36;;;;;;;2.92;1.50;;;;;;;14.77;48.28;95326.03;4195151;28;20051;-71
2023/10/09 05:04:39;;;;;;;4.38;1.02;;;;;;;14.85;47.90;95344.47;4211900;28;20062;-70
2023/10/09 05:06:55;;;;;;;5.57;1.13;;;;;;;14.87;47.63;95342.47;4188107;28;20517;-74
2023/10/09 05:09:07;;;;;;;6.00;1.30;;;;;;;14.94;47.70;95345.25;4209805;28;20055;-74
2023/10/09 05:11:34;;;;;;;3.13;1.48;;;;;;;14.93;47.20;95348.91;4177047;28;20092;-74
2023/10/09 05:15:46;;;;;;;;;;;;;;;14.95;46.92;95344.28;4206434;28;20395;-72
2023/10/09 05:17:56;;;;;;;3.42;1.30;;;;;;;14.90;46.65;95346.59;4212368;28;19935;-73
2023/10/09 05:23:23;;;;;;;5.70;1.95;;;;;;;14.68;46.69;95353.41;4210582;28;20133;-72
2023/10/09 05:24:54;;;;;;;5.88;1.73;;;;;;;14.77;46.38;95356.84;4206478;28;20109;-73
2023/10/09 05:27:17;;;;;;;4.30;1.20;;;;;;;14.77;46.35;95356.84;4211520;28;20409;-73
2023/10/09 05:31:55;;;;;;;2.70;1.20;;;;;;;14.83;46.37;95374.66;4189002;28;20160;-72
2023/10/09 05:34:01;;;;;;;5.28;1.35;;;;;;;14.88;45.90;95382.88;4199852;28;20109;-73
2023/10/09 05:36:31;;;;;;;7.18;1.50;;;;;;;14.92;45.72;95381.53;4202699;28;20497;-72
2023/10/09 05:38:44;;;;;;;4.38;1.60;;;;;;;14.88;45.86;95385.50;4213293;28;20204;-72
2023/10/09 05:40:53;;;;;;;5.53;1.55;;;;;;;14.95;45.91;95383.84;4210706;28;20135;-72
2023/10/09 05:42:59;;;;;;;3.45;1.50;;;;;;;15.13;45.31;95378.34;4207842;28;20044;-73
2023/10/09 05:47:29;;;;;;;4.25;1.55;;;;;;;15.44;44.38;95391.56;4200911;28;20044;-72
2023/10/09 05:49:46;;;;;;;4.15;1.35;;;;;;;15.43;44.18;95399.69;4211443;28;20047;-73
2023/10/09 05:51:53;;;;;;;5.45;1.30;;;;;;;15.44;44.07;95396.84;4208119;28;20047;-72
2023/10/09 05:54:23;;;;;;;6.85;1.65;;;;;;;15.55;43.91;95404.41;4209037;28;20145;-70
2023/10/09 06:03:23;;;;;;;3.45;1.23;;;;;;;15.40;43.20;95421.13;4202294;28;20060;-71
2023/10/09 06:05:40;;;;;;;6.80;1.20;;;;;;;15.54;43.42;95423.06;4193459;28;20102;-73
2023/10/09 06:08:04;;;;;;;2.20;1.10;;;;;;;15.29;43.79;95432.88;4193065;28;20588;-72
2023/10/09 06:10:32;;;;;;;5.68;1.35;;;;;;;15.37;43.48;95424.94;4210967;28;20062;-73
2023/10/09 06:16:41;;;;;;;5.70;1.40;;;;;;;15.38;43.12;95436.31;4206518;28;20169;-72
2023/10/09 06:18:53;;;;;;;3.10;1.30;;;;;;;15.29;42.95;95436.38;4210616;28;20056;-71
2023/10/09 06:23:16;;;;;;;6.35;1.52;;;;;;;15.29;42.50;95449.56;4209991;28;20081;-72
2023/10/09 06:25:18;;;;;;;2.53;1.20;;;;;;;15.21;43.06;95451.38;4210828;28;20404;-73
2023/10/09 06:28:04;;;;;;;3.58;1.70;;;;;;;14.96;43.18;95451.44;4180976;28;20084;-74
2023/10/09 06:31:57;;;;;;;2.63;1.25;;;;;;;15.01;43.03;95457.03;4199621;28;20060;-72
2023/10/09 06:34:15;;;;;;;3.60;1.48;;;;;;;15.11;42.88;95454.22;4197801;28;20057;-73
2023/10/09 06:36:18;;;;;;;4.63;1.60;;;;;;;15.02;43.18;95455.25;4196066;28;20735;-73
2023/10/09 06:38:33;;;;;;;4.05;1.48;;;;;;;15.08;42.85;95447.47;4168890;28;20052;-71
2023/10/09 06:43:07;;;;;;;4.18;2.13;;;;;;;15.28;42.20;95439.16;4204222;28;20289;-73
2023/10/09 06:47:13;;;;;;;7.85;2.13;;;;;;;14.83;42.70;95441.41;4199017;28;20078;-72
2023/10/09 06:49:29;;;;;;;4.70;1.90;;;;;;;14.68;43.36;95451.81;4210333;28;20139;-73
2023/10/09 06:56:04;;;;;;;4.55;1.80;;;;;;;14.83;42.53;95445.88;4206747;28;20130;-72
2023/10/09 06:58:15;;;;;;;5.15;1.83;;;;;;;14.86;42.49;95449.00;4192030;28;20551;-71
2023/10/09 07:02:45;;;;;;;2.60;1.75;;;;;;;15.00;41.55;95451.94;4180470;28;20239;-73
2023/10/09 07:04:54;;;;;;;3.63;1.95;;;;;;;15.14;40.85;95440.69;4181462;28;20040;-73
2023/10/09 07:07:01;;;;;;;4.60;1.77;;;;;;;15.18;41.21;95443.81;4192316;28;20059;-73
2023/10/09 07:11:21;;;;;;;6.03;1.63;;;;;;;15.48;40.44;95452.78;4192835;28;20139;-72
2023/10/09 07:13:24;;;;;;;3.80;1.80;;;;;;;14.76;39.63;95453.63;4208833;28;20052;-72
2023/10/09 07:17:52;;;;;;;6.10;1.75;;;;;;;14.96;39.92;95454.09;4199096;28;20031;-70
2023/10/09 07:22:02;;;;;;;8.07;2.30;;;;;;;14.53;40.88;95443.69;4190601;28;20055;-71
2023/10/09 07:24:17;;;;;;;5.55;1.90;;;;;;;14.85;40.43;95447.34;4204781;28;20109;-72
2023/10/09 07:26:23;;;;;;;4.47;1.55;;;;;;;15.21;40.09;95456.66;4209479;28;20396;-72
2023/10/09 07:28:42;;;;;;;2.92;1.48;;;;;;;15.42;39.75;95454.28;4208938;28;20500;-73
2023/10/09 07:30:46;;;;;;;5.55;1.73;;;;;;;15.72;38.98;95458.03;4195912;28;20106;-72
2023/10/09 07:32:50;;;;;;;4.10;1.73;;;;;;;15.68;38.35;95459.31;4209387;28;20061;-72
2023/10/09 07:34:57;;;;;;;4.85;1.67;;;;;;;15.61;38.88;95460.16;4209267;28;20044;-73
2023/10/09 07:37:03;;;;;;;3.35;1.42;;;;;;;15.55;39.21;95449.31;4210394;28;20135;-71
2023/10/09 07:39:13;;;;;;;5.00;1.95;;;;;;;15.82;38.86;95446.41;4177286;28;20087;-72
2023/10/09 07:43:19;;;;;;;3.47;1.70;;;;;;;15.73;38.41;95459.66;4193081;28;20258;-72
2023/10/09 07:49:53;;;;;;;4.82;2.08;;;;;;;15.99;37.80;95450.59;4211822;28;20058;-74
2023/10/09 07:51:58;;;;;;;2.55;1.38;;;;;;;16.19;37.43;95448.31;4190384;28;20110;-74
2023/10/09 07:54:07;;;;;;;12.63;5.05;;;;;;;15.71;37.60;95451.06;4207726;28;20505;-72
2023/10/09 07:56:13;;;;;;;6.82;2.10;;;;;;;16.03;37.23;95459.84;4188013;28;20049;-71
2023/10/09 07:58:16;;;;;;;15.25;2.15;;;;;;;15.35;38.53;95469.16;4209106;28;20048;-74
2023/10/09 08:00:36;;;;;;;7.18;1.60;;;;;;;15.28;39.03;95465.56;4211733;28;20122;-72
2023/10/09 08:02:41;;;;;;;6.28;1.60;;;;;;;15.85;38.47;95459.25;4167080;28;20429;-72
2023/10/09 08:04:49;;;;;;;2.47;1.33;;;;;;;16.31;37.42;95462.78;4204808;28;20488;-73
2023/10/09 08:06:53;;;;;;;4.38;1.92;;;;;;;16.20;37.03;95470.28;4210784;28;20060;-72
2023/10/09 08:13:56;;;;;;;4.32;1.80;;;;;;;16.30;36.39;95463.78;4211479;28;20052;-71
2023/10/09 08:16:17;;;;;;;7.80;2.20;;;;;;;16.48;35.97;95465.34;4211675;28;20040;-72
2023/10/09 08:18:27;;;;;;;6.68;1.60;;;;;;;16.61;35.71;95465.56;4201800;28;20048;-71
2023/10/09 08:22:58;;;;;;;8.82;2.10;;;;;;;16.85;35.19;95453.16;4204547;28;20071;-74
2023/10/09 08:25:02;;;;;;;3.20;1.30;;;;;;;16.82;35.11;95448.19;4197807;28;20080;-72
2023/10/09 08:29:34;;;;;;;4.38;1.60;;;;;;;16.97;35.27;95438.47;4210963;28;20048;-70
2023/10/09 08:31:45;;;;;;;2.10;1.15;;;;;;;17.00;35.17;95448.69;4212341;28;20083;-74
2023/10/09 08:34:01;;;;;;;5.90;1.40;;;;;;;17.13;35.13;95442.78;4212299;28;20051;-73
2023/10/09 08:36:07;;;;;;;7.20;2.90;;;;;;;16.68;35.25;95441.84;4202979;28;20094;-73
2023/10/09 08:38:10;;;;;;;6.72;2.72;;;;;;;16.21;36.19;95429.66;4193530;28;20048;-73
2023/10/09 08:40:18;;;;;;;4.10;1.60;;;;;;;15.42;37.00;95427.88;4211628;28;20142;-73
2023/10/09 08:42:23;;;;;;;5.93;2.10;;;;;;;15.40;37.85;95429.06;4210197;28;20059;-73
2023/10/09 08:44:31;;;;;;;4.45;1.50;;;;;;;15.90;37.06;95420.75;4193319;28;20143;-72
2023/10/09 08:46:36;;;;;;;8.98;2.38;;;;;;;16.28;36.45;95415.56;4182385;28;20048;-71
2023/10/09 08:48:39;;;;;;;18.40;2.17;;;;;;;16.61;35.45;95417.13;4208259;28;20368;-73
2023/10/09 08:50:43;;;;;;;2.58;1.42;;;;;;;16.98;34.87;95400.41;4176585;28;20063;-72
2023/10/09 08:52:46;;;;;;;10.65;2.90;;;;;;;16.81;33.99;95406.88;4194095;28;20087;-72
2023/10/09 08:54:49;;;;;;;;;;;;;;;17.11;33.90;95395.31;4207555;28;20655;-70
2023/10/09 08:56:56;;;;;;;3.00;1.30;;;;;;;17.18;33.69;95400.69;4193831;28;19928;-70
2023/10/09 08:59:02;;;;;;;5.28;1.63;;;;;;;17.43;33.05;95398.59;4211621;28;20500;-73
2023/10/09 09:01:04;;;;;;;3.80;1.63;;;;;;;17.63;32.53;95398.00;4212012;28;20599;-72
2023/10/09 09:03:06;;;;;;;6.75;1.63;;;;;;;17.90;32.13;95396.53;4193958;28;20445;-71
2023/10/09 09:05:18;;;;;;;2.50;1.30;;;;;;;17.98;31.98;95391.94;4187109;28;20045;-72
2023/10/09 09:07:26;;;;;;;4.40;2.05;;;;;;;18.19;31.64;95392.94;4207210;28;20124;-75
2023/10/09 09:09:31;;;;;;;4.78;1.40;;;;;;;17.53;32.26;95401.78;4204985;28;20048;-73
2023/10/09 09:11:48;;;;;;;3.20;1.17;;;;;;;17.73;32.59;95396.72;4198477;28;20052;-73
2023/10/09 09:13:53;;;;;;;2.58;1.40;;;;;;;17.90;32.47;95394.69;4206013;28;20061;-72
2023/10/09 09:15:59;;;;;;;14.48;2.33;;;;;;;17.93;32.11;95410.22;4205458;28;20049;-73
2023/10/09 09:18:06;;;;;;;3.80;1.40;;;;;;;18.06;32.13;95409.53;4211817;28;20423;-74
2023/10/09 09:20:34;;;;;;;4.28;1.70;;;;;;;18.06;31.79;95400.75;4199114;28;20103;-72
2023/10/09 09:22:57;;;;;;;4.82;1.42;;;;;;;18.16;31.66;95396.78;4188840;28;20052;-72
2023/10/09 09:25:09;;;;;;;3.70;2.30;;;;;;;17.56;31.89;95396.09;4205863;28;20551;-74
2023/10/09 09:27:18;;;;;;;3.40;1.52;;;;;;;16.88;33.08;95398.03;4192824;28;20136;-71
2023/10/09 09:29:23;;;;;;;6.35;1.85;;;;;;;17.24;33.35;95404.44;4208428;28;20609;-75
2023/10/09 09:31:26;;;;;;;3.35;1.30;;;;;;;17.74;32.58;95385.09;4211189;28;20048;-75
2023/10/09 09:33:42;;;;;;;6.35;2.17;;;;;;;17.95;31.72;95387.00;4210141;28;20040;-73
2023/10/09 09:36:04;;;;;;;5.28;1.77;;;;;;;17.71;31.98;95382.00;4208876;28;20605;-72
2023/10/09 09:38:14;;;;;;;5.93;1.60;;;;;;;17.74;32.01;95377.13;4205930;28;20094;-74
2023/10/09 09:40:41;;;;;;;8.20;1.95;;;;;;;17.35;32.24;95375.66;4210389;28;20800;-71
2023/10/09 09:42:50;;;;;;;5.45;1.90;;;;;;;17.31;31.80;95373.56;4191829;28;20075;-73
2023/10/09 09:44:57;;;;;;;6.20;1.60;;;;;;;16.98;32.03;95376.59;4208218;28;20106;-74
2023/10/09 09:47:00;;;;;;;5.03;1.67;;;;;;;17.21;31.74;95371.22;4209415;28;20052;-73
2023/10/09 09:49:16;;;;;;;5.00;1.55;;;;;;;17.62;31.81;95378.66;4212033;28;20056;-73
2023/10/09 09:51:19;;;;;;;4.07;1.50;;;;;;;16.89;31.88;95380.34;4197856;28;20056;-72
2023/10/09 09:53:23;;;;;;;5.28;2.25;;;;;;;16.67;32.62;95380.19;4206422;28;20139;-73
2023/10/09 09:55:30;;;;;;;;;;;;;;;17.14;32.21;95367.63;4190385;28;20045;-72
2023/10/09 09:57:39;;;;;;;3.95;1.50;;;;;;;17.46;31.84;95369.06;4207279;28;19924;-73
2023/10/09 09:59:49;;;;;;;3.95;2.13;;;;;;;17.28;31.14;95373.94;4192877;28;20052;-72
2023/10/09 10:01:57;;;;;;;4.82;1.70;;;;;;;16.63;32.34;95352.44;4209927;28;20512;-72
2023/10/09 10:04:13;;;;;;;4.00;1.70;;;;;;;17.11;31.28;95363.53;4193268;28;20397;-72
2023/10/09 10:06:18;;;;;;;5.70;1.60;;;;;;;17.22;31.56;95343.72;4206022;28;20076;-72
2023/10/09 10:08:22;;;;;;;3.83;1.50;;;;;;;17.25;30.89;95347.81;4202533;28;20091;-74
2023/10/09 10:10:49;;;;;;;3.58;1.92;;;;;;;17.56;30.85;95329.88;4184703;28;20655;-74
2023/10/09 10:13:01;;;;;;;9.77;2.80;;;;;;;17.87;30.28;95334.09;4190489;28;20056;-75
2023/10/09 10:15:14;;;;;;;5.20;2.00;;;;;;;17.89;30.54;95329.41;4161596;28;20056;-73
2023/10/09 10:17:16;;;;;;;3.45;1.48;;;;;;;18.17;30.25;95320.72;4192502;28;20052;-72
2023/10/09 10:21:38;;;;;;;4.20;1.55;;;;;;;17.69;29.18;95307.19;4187064;28;20393;-74
2023/10/09 10:23:40;;;;;;;2.72;1.50;;;;;;;17.59;28.76;95310.13;4210599;28;20051;-74
2023/10/09 10:25:46;;;;;;;6.25;1.77;;;;;;;17.72;29.32;95310.25;4210860;28;20076;-70
2023/10/09 10:28:28;;;;;;;4.63;1.73;;;;;;;17.77;29.76;95299.13;4176397;28;20160;-72
2023/10/09 10:30:36;;;;;;;4.35;1.63;;;;;;;18.17;29.90;95286.22;4210413;28;20055;-73
2023/10/09 10:33:10;;;;;;;3.45;1.77;;;;;;;18.68;29.40;95277.22;4192249;28;20153;-74
2023/10/09 10:35:12;;;;;;;3.72;1.95;;;;;;;18.45;28.84;95296.03;4176918;28;20063;-74
2023/10/09 10:37:14;;;;;;;2.13;1.05;;;;;;;17.89;30.53;95271.09;4192249;28;20060;-73
2023/10/09 10:41:22;;;;;;;4.53;1.90;;;;;;;18.00;30.43;95265.31;4209770;28;20083;-73
2023/10/09 10:45:44;;;;;;;4.38;1.55;;;;;;;18.45;29.50;95259.72;4208570;28;20059;-74
2023/10/09 10:47:48;;;;;;;3.30;1.42;;;;;;;18.59;29.40;95257.97;4181369;28;20060;-73
2023/10/09 10:49:57;;;;;;;4.38;1.55;;;;;;;18.38;29.44;95256.22;4206298;28;20047;-73
2023/10/09 10:52:01;;;;;;;5.07;1.77;;;;;;;18.60;29.26;95241.03;4208757;28;20044;-75
2023/10/09 10:55:17;;;;;;;8.82;2.10;;;;;;;18.69;29.77;95247.00;4189273;28;20079;-72
2023/10/09 10:56:35;;;;;;;3.90;1.35;;;;;;;19.17;29.98;95247.88;4187807;28;20105;-73
2023/10/09 10:58:38;;;;;;;3.50;1.20;;;;;;;19.55;29.44;95238.56;4207687;28;20473;-73
2023/10/09 11:03:19;;;;;;;4.03;1.60;;;;;;;18.48;30.19;95243.44;4209704;28;20079;-75
2023/10/09 11:05:25;;;;;;;2.50;1.50;;;;;;;18.31;30.45;95252.69;4210416;28;20439;-75
2023/10/09 11:07:27;;;;;;;3.33;1.40;;;;;;;18.44;30.52;95246.66;4204304;28;20044;-75
2023/10/09 11:10:28;;;;;;;4.95;1.77;;;;;;;18.67;29.98;95241.06;4207349;28;20157;-75
2023/10/09 11:12:21;;;;;;;5.22;1.80;;;;;;;18.70;30.21;95230.88;4196975;28;20083;-73
2023/10/09 11:14:26;;;;;;;9.15;2.17;;;;;;;18.95;29.58;95223.28;4202900;28;20047;-75
2023/10/09 11:19:31;;;;;;;3.88;1.50;;;;;;;19.21;29.18;95208.47;4126328;28;20124;-73
2023/10/09 11:21:40;;;;;;;5.28;1.75;;;;;;;19.46;28.97;95198.06;4134466;28;20083;-72
2023/10/09 11:24:26;;;;;;;7.30;2.07;;;;;;;19.16;29.26;95193.09;4122868;28;20109;-71
2023/10/09 11:26:23;;;;;;;5.60;1.63;;;;;;;19.10;29.64;95178.00;4137347;28;20046;-74
2023/10/09 11:30:47;;;;;;;7.55;2.92;;;;;;;19.13;29.46;95182.09;4125467;28;20054;-73
2023/10/09 11:32:51;;;;;;;6.38;2.55;;;;;;;19.32;29.19;95175.19;4119161;28;20054;-73
2023/10/09 11:35:28;;;;;;;3.15;1.55;;;;;;;19.09;29.14;95181.66;4108030;28;20065;-74
2023/10/09 11:39:35;;;;;;;5.22;2.10;;;;;;;18.96;29.52;95190.41;4125767;28;20050;-73
2023/10/09 11:41:41;;;;;;;7.65;4.20;;;;;;;19.11;29.22;95187.59;4125482;28;20424;-75
2023/10/09 11:43:54;;;;;;;9.05;4.20;;;;;;;19.18;28.47;95177.78;4123958;28;20573;-75
2023/10/09 11:46:11;;;;;;;5.55;3.53;;;;;;;18.84;28.90;95186.66;4124335;28;20137;-72